Time;durP1;ratioP1;P1;durP2;ratioP2;P2;SDS_P1;SDS_P2;PMS_P1;PMS_P2;Temp;Humidity;BMP_temperature;BMP_pressure;BME280_temperature;BME280_humidity;BME280_pressure;Samples;Min_cycle;Max_cycle;Signal;HPM_P1;HPM_P2
2022/03/26 00:00:28;;;;;;;7.70;4.75;;;;;;;;;;5061948;28;20047;-81
2022/03/26 00:02:54;;;;;;;7.50;4.68;;;;;;;;;;5078813;28;20031;-81
2022/03/26 00:05:20;;;;;;;9.80;4.57;;;;;;;;;;5078620;28;20027;-80
2022/03/26 00:07:45;;;;;;;6.60;4.60;;;;;;;;;;5077965;28;20430;-82
2022/03/26 00:10:11;;;;;;;9.10;4.15;;;;;;;;;;5097110;28;20039;-80
2022/03/26 00:12:37;;;;;;;6.72;4.57;;;;;;;;;;5061608;28;20028;-80
2022/03/26 00:15:04;;;;;;;6.95;4.60;;;;;;;;;;5061243;28;20074;-80
2022/03/26 00:17:30;;;;;;;9.45;4.00;;;;;;;;;;5078929;28;20016;-81
2022/03/26 00:19:55;;;;;;;7.57;4.28;;;;;;;;;;5096658;28;20028;-81
2022/03/26 00:22:21;;;;;;;6.95;4.03;;;;;;;;;;5077888;28;20440;-81
2022/03/26 00:24:46;;;;;;;5.88;3.97;;;;;;;;;;5077723;28;20032;-81
2022/03/26 00:27:11;;;;;;;7.28;4.45;;;;;;;;;;5077720;28;20068;-82
2022/03/26 00:29:37;;;;;;;5.72;3.75;;;;;;;;;;5096289;28;20077;-81
2022/03/26 00:32:04;;;;;;;5.82;3.92;;;;;;;;;;5044441;28;20028;-81
2022/03/26 00:34:30;;;;;;;6.80;4.30;;;;;;;;;;5078242;28;20104;-80
2022/03/26 00:36:56;;;;;;;8.07;3.97;;;;;;;;;;5079910;28;20477;-80
2022/03/26 00:39:22;;;;;;;6.75;4.22;;;;;;;;;;5077439;28;20032;-79
2022/03/26 00:41:47;;;;;;;7.30;3.80;;;;;;;;;;5077615;28;20085;-80
2022/03/26 00:44:13;;;;;;;5.75;3.85;;;;;;;;;;5060857;28;20054;-82
2022/03/26 00:46:38;;;;;;;5.57;3.80;;;;;;;;;;5077522;28;20031;-82
2022/03/26 00:49:04;;;;;;;6.90;3.72;;;;;;;;;;5060815;28;20032;-82
2022/03/26 00:51:29;;;;;;;5.80;3.97;;;;;;;;;;5077342;28;20116;-82
2022/03/26 00:53:55;;;;;;;5.78;4.07;;;;;;;;;;5060534;28;20383;-82
2022/03/26 00:56:21;;;;;;;8.63;3.88;;;;;;;;;;5095716;28;20107;-82
2022/03/26 00:58:46;;;;;;;5.85;3.92;;;;;;;;;;5095442;28;20032;-82
2022/03/26 01:01:12;;;;;;;4.90;3.80;;;;;;;;;;5060113;28;20056;-83
2022/03/26 01:03:37;;;;;;;5.30;3.85;;;;;;;;;;5077200;28;20028;-85
2022/03/26 01:06:04;;;;;;;5.95;3.88;;;;;;;;;;5095025;28;20032;-82
2022/03/26 01:08:30;;;;;;;8.35;4.53;;;;;;;;;;5095067;28;20028;-82
2022/03/26 01:10:55;;;;;;;6.45;4.15;;;;;;;;;;5094884;28;20043;-84
2022/03/26 01:13:21;;;;;;;8.80;4.38;;;;;;;;;;5077544;28;20112;-83
2022/03/26 01:15:47;;;;;;;6.65;3.92;;;;;;;;;;5060149;28;20036;-84
2022/03/26 01:18:12;;;;;;;7.15;4.10;;;;;;;;;;5095263;28;20438;-84
2022/03/26 01:20:38;;;;;;;6.45;3.90;;;;;;;;;;5077103;28;20467;-81
2022/03/26 01:23:03;;;;;;;4.63;3.63;;;;;;;;;;5076886;28;20433;-81
2022/03/26 01:25:28;;;;;;;11.18;4.07;;;;;;;;;;5059596;28;20034;-80
2022/03/26 01:27:54;;;;;;;6.10;4.15;;;;;;;;;;5076448;28;20445;-82
2022/03/26 01:30:19;;;;;;;5.90;4.05;;;;;;;;;;5095184;28;20035;-81
2022/03/26 01:32:45;;;;;;;5.68;3.83;;;;;;;;;;5095190;28;20082;-81
2022/03/26 01:35:11;;;;;;;5.85;3.88;;;;;;;;;;5077328;28;20470;-81
2022/03/26 01:37:37;;;;;;;7.85;3.30;;;;;;;;;;5076728;28;20067;-80
2022/03/26 01:40:04;;;;;;;4.20;3.28;;;;;;;;;;5060343;28;20063;-81
2022/03/26 01:42:29;;;;;;;4.45;3.17;;;;;;;;;;5076436;28;20028;-81
2022/03/26 01:44:55;;;;;;;5.25;3.55;;;;;;;;;;5076528;28;20039;-81
2022/03/26 01:47:20;;;;;;;5.18;3.67;;;;;;;;;;5060037;28;20039;-81
2022/03/26 01:49:46;;;;;;;7.13;4.10;;;;;;;;;;5094495;28;20031;-80
2022/03/26 01:52:11;;;;;;;6.22;3.85;;;;;;;;;;5059929;28;20039;-82
2022/03/26 01:54:41;;;;;;;7.68;4.05;;;;;;;;;;5094468;28;20115;-83
2022/03/26 01:57:10;;;;;;;7.80;4.18;;;;;;;;;;5059920;28;20023;-84
2022/03/26 01:59:37;;;;;;;8.35;4.10;;;;;;;;;;5076546;28;20048;-83
2022/03/26 02:02:02;;;;;;;6.85;3.90;;;;;;;;;;5094126;28;20039;-84
2022/03/26 02:04:28;;;;;;;6.03;4.18;;;;;;;;;;5075590;28;20027;-83
2022/03/26 02:06:53;;;;;;;6.70;4.05;;;;;;;;;;5075666;28;20142;-83
2022/03/26 02:09:19;;;;;;;5.65;3.97;;;;;;;;;;5094230;28;20055;-84
2022/03/26 02:11:46;;;;;;;6.68;4.07;;;;;;;;;;5076145;28;20061;-83
2022/03/26 02:14:13;;;;;;;5.15;3.92;;;;;;;;;;5075668;28;20031;-84
2022/03/26 02:16:40;;;;;;;7.43;4.28;;;;;;;;;;5075977;28;20056;-83
2022/03/26 02:19:07;;;;;;;6.93;4.20;;;;;;;;;;5075609;28;20042;-83
2022/03/26 02:21:34;;;;;;;5.03;3.50;;;;;;;;;;5075164;28;20028;-84
2022/03/26 02:24:02;;;;;;;6.03;4.20;;;;;;;;;;5075538;28;20379;-83
2022/03/26 02:26:28;;;;;;;4.80;3.58;;;;;;;;;;5093611;28;20166;-83
2022/03/26 02:28:54;;;;;;;5.82;3.95;;;;;;;;;;5075351;28;20115;-81
2022/03/26 02:31:20;;;;;;;6.30;3.67;;;;;;;;;;5075330;28;20032;-83
2022/03/26 02:33:46;;;;;;;6.10;4.05;;;;;;;;;;5075775;28;20396;-83
2022/03/26 02:36:11;;;;;;;5.03;4.03;;;;;;;;;;5058381;28;20016;-83
2022/03/26 02:38:37;;;;;;;7.95;4.57;;;;;;;;;;5075068;28;20081;-82
2022/03/26 02:41:06;;;;;;;8.55;4.50;;;;;;;;;;5075506;28;20030;-83
2022/03/26 02:43:32;;;;;;;6.10;3.55;;;;;;;;;;5075046;28;20024;-83
2022/03/26 02:45:58;;;;;;;6.95;4.15;;;;;;;;;;5074589;28;20424;-83
2022/03/26 02:48:23;;;;;;;10.93;4.45;;;;;;;;;;5075041;28;20032;-83
2022/03/26 02:50:49;;;;;;;7.75;4.28;;;;;;;;;;5058331;28;20028;-83
2022/03/26 02:53:14;;;;;;;4.30;3.58;;;;;;;;;;5074590;28;20108;-84
2022/03/26 02:55:40;;;;;;;9.30;4.32;;;;;;;;;;5075116;28;20066;-83
2022/03/26 02:58:07;;;;;;;5.70;4.20;;;;;;;;;;5074550;28;20465;-85
2022/03/26 03:00:33;;;;;;;8.57;4.55;;;;;;;;;;5071304;28;20080;-83
2022/03/26 03:02:58;;;;;;;6.88;4.40;;;;;;;;;;5071244;28;20063;-83
2022/03/26 03:05:24;;;;;;;5.65;3.88;;;;;;;;;;5071083;28;20028;-83
2022/03/26 03:07:50;;;;;;;5.05;3.90;;;;;;;;;;5071645;28;20081;-84
2022/03/26 03:10:17;;;;;;;6.13;4.50;;;;;;;;;;5054492;28;20511;-84
2022/03/26 03:12:44;;;;;;;6.28;4.60;;;;;;;;;;5071294;28;20489;-82
2022/03/26 03:15:12;;;;;;;9.32;5.07;;;;;;;;;;5070983;28;20028;-82
2022/03/26 03:17:39;;;;;;;6.07;4.22;;;;;;;;;;5054267;28;20044;-82
2022/03/26 03:20:05;;;;;;;6.65;4.78;;;;;;;;;;5071263;28;20024;-82
2022/03/26 03:22:32;;;;;;;6.63;4.35;;;;;;;;;;5070923;28;20028;-81
2022/03/26 03:24:57;;;;;;;7.97;4.97;;;;;;;;;;5071400;28;20029;-84
2022/03/26 03:27:23;;;;;;;10.02;4.70;;;;;;;;;;5070941;28;20051;-84
2022/03/26 03:29:49;;;;;;;8.73;4.78;;;;;;;;;;5071026;28;20066;-84
2022/03/26 03:32:15;;;;;;;5.57;3.85;;;;;;;;;;5072002;28;20039;-82
2022/03/26 03:34:40;;;;;;;5.50;4.22;;;;;;;;;;5053589;28;20028;-83
2022/03/26 03:37:06;;;;;;;6.82;4.57;;;;;;;;;;5071114;28;20047;-83
2022/03/26 03:39:32;;;;;;;5.80;4.40;;;;;;;;;;5072556;28;20093;-83
2022/03/26 03:41:57;;;;;;;6.63;4.18;;;;;;;;;;5070856;28;20383;-84
2022/03/26 03:44:23;;;;;;;6.68;4.28;;;;;;;;;;5070961;28;20033;-84
2022/03/26 03:46:48;;;;;;;7.50;5.30;;;;;;;;;;5071368;28;20028;-84
2022/03/26 03:49:13;;;;;;;8.40;4.65;;;;;;;;;;5071293;28;20067;-83
2022/03/26 03:51:39;;;;;;;7.47;4.95;;;;;;;;;;5070741;28;20028;-83
2022/03/26 03:54:05;;;;;;;8.05;4.80;;;;;;;;;;5072560;28;20090;-82
2022/03/26 03:56:31;;;;;;;7.90;5.88;;;;;;;;;;5070953;28;20025;-83
2022/03/26 03:58:56;;;;;;;9.30;5.70;;;;;;;;;;5054176;28;20432;-84
2022/03/26 04:01:22;;;;;;;7.05;4.53;;;;;;;;;;5091374;28;20052;-83
2022/03/26 04:03:47;;;;;;;8.73;4.70;;;;;;;;;;5074140;28;20024;-82
2022/03/26 04:06:13;;;;;;;7.35;5.00;;;;;;;;;;5092543;28;20032;-82
2022/03/26 04:08:39;;;;;;;7.40;4.82;;;;;;;;;;5074204;28;20462;-83
2022/03/26 04:11:04;;;;;;;7.82;4.80;;;;;;;;;;5057500;28;20024;-83
2022/03/26 04:13:30;;;;;;;8.82;4.90;;;;;;;;;;5092642;28;20458;-83
2022/03/26 04:15:55;;;;;;;10.43;5.47;;;;;;;;;;5074275;28;20032;-84
2022/03/26 04:18:21;;;;;;;8.73;5.30;;;;;;;;;;5092187;28;20032;-83
2022/03/26 04:20:46;;;;;;;8.95;5.07;;;;;;;;;;5092325;28;20032;-83
2022/03/26 04:23:12;;;;;;;7.57;5.03;;;;;;;;;;5092080;28;20046;-83
2022/03/26 04:25:38;;;;;;;8.35;5.15;;;;;;;;;;5074089;28;20036;-83
2022/03/26 04:28:04;;;;;;;7.25;4.50;;;;;;;;;;5074602;28;20028;-82
2022/03/26 04:30:29;;;;;;;8.05;4.60;;;;;;;;;;5092399;28;20119;-82
2022/03/26 04:32:55;;;;;;;9.30;5.20;;;;;;;;;;5074213;28;20052;-82
2022/03/26 04:35:21;;;;;;;7.90;4.80;;;;;;;;;;5092306;28;20336;-83
2022/03/26 04:37:46;;;;;;;8.63;4.95;;;;;;;;;;5073599;28;20032;-83
2022/03/26 04:40:13;;;;;;;8.80;5.05;;;;;;;;;;5057395;28;20040;-81
2022/03/26 04:42:42;;;;;;;8.35;5.63;;;;;;;;;;5091914;28;20028;-83
2022/03/26 04:45:09;;;;;;;7.78;5.60;;;;;;;;;;5059027;28;20058;-83
2022/03/26 04:47:35;;;;;;;7.13;5.10;;;;;;;;;;5077567;28;20024;-83
2022/03/26 04:50:00;;;;;;;7.40;5.10;;;;;;;;;;5077100;28;20032;-84
2022/03/26 04:52:26;;;;;;;9.45;5.10;;;;;;;;;;5077300;28;20032;-83
2022/03/26 04:54:51;;;;;;;7.22;4.72;;;;;;;;;;5060642;28;20028;-83
2022/03/26 04:57:18;;;;;;;6.45;4.85;;;;;;;;;;5095357;28;20531;-83
2022/03/26 04:59:44;;;;;;;9.38;5.10;;;;;;;;;;5077387;28;20055;-82
2022/03/26 05:02:09;;;;;;;9.25;5.28;;;;;;;;;;5095468;28;20075;-81
2022/03/26 05:04:35;;;;;;;9.02;4.95;;;;;;;;;;5094877;28;20111;-81
2022/03/26 05:07:45;;;;;;;8.02;5.28;;;;;;;;;;5094861;28;20371;-82
2022/03/26 05:09:46;;;;;;;13.30;6.13;;;;;;;;;;5094874;28;20524;-82
2022/03/26 05:12:11;;;;;;;9.50;6.22;;;;;;;;;;5060590;28;20115;-82
2022/03/26 05:14:37;;;;;;;9.35;6.07;;;;;;;;;;5094979;28;20035;-84
2022/03/26 05:17:02;;;;;;;13.30;6.05;;;;;;;;;;5095444;28;20375;-81
2022/03/26 05:19:28;;;;;;;10.02;6.15;;;;;;;;;;5077017;28;20107;-80
2022/03/26 05:21:53;;;;;;;16.75;6.30;;;;;;;;;;5060245;28;20028;-80
2022/03/26 05:24:19;;;;;;;8.65;5.70;;;;;;;;;;5095251;28;20375;-81
2022/03/26 05:26:44;;;;;;;11.98;5.43;;;;;;;;;;5076492;28;20167;-83
2022/03/26 05:29:09;;;;;;;8.10;5.00;;;;;;;;;;5094636;28;20080;-80
2022/03/26 05:31:36;;;;;;;7.75;5.35;;;;;;;;;;5076822;28;20107;-81
2022/03/26 05:34:02;;;;;;;7.07;5.25;;;;;;;;;;5077794;28;20028;-84
2022/03/26 05:36:27;;;;;;;8.05;5.13;;;;;;;;;;5060124;28;20031;-83
2022/03/26 05:38:53;;;;;;;7.35;4.90;;;;;;;;;;5076721;28;20024;-85
2022/03/26 05:41:18;;;;;;;8.20;5.20;;;;;;;;;;5077511;28;20028;-84
2022/03/26 05:43:44;;;;;;;8.70;5.45;;;;;;;;;;5095534;28;20085;-83
2022/03/26 05:46:11;;;;;;;15.65;5.85;;;;;;;;;;5081576;28;20034;-85
2022/03/26 05:48:36;;;;;;;9.95;5.68;;;;;;;;;;5065435;28;20028;-87
2022/03/26 05:51:02;;;;;;;7.55;5.13;;;;;;;;;;5080608;28;20096;-87
2022/03/26 05:53:27;;;;;;;10.45;5.35;;;;;;;;;;5077913;28;20024;-86
2022/03/26 05:55:53;;;;;;;6.97;5.45;;;;;;;;;;5095276;28;20031;-85
2022/03/26 05:58:18;;;;;;;8.32;5.63;;;;;;;;;;5097112;28;20483;-85
2022/03/26 06:00:44;;;;;;;9.20;5.28;;;;;;;;;;5044303;28;20409;-87
2022/03/26 06:03:10;;;;;;;10.48;5.75;;;;;;;;;;5061272;28;20036;-87
2022/03/26 06:05:37;;;;;;;18.15;5.70;;;;;;;;;;5077209;28;20031;-88
2022/03/26 06:08:02;;;;;;;8.55;5.82;;;;;;;;;;5079208;28;20104;-87
2022/03/26 06:10:28;;;;;;;11.35;5.47;;;;;;;;;;5097825;28;20053;-86
2022/03/26 06:12:54;;;;;;;6.72;5.03;;;;;;;;;;5097231;28;20040;-88
2022/03/26 06:15:19;;;;;;;9.32;5.57;;;;;;;;;;5096370;28;20039;-86
2022/03/26 06:17:46;;;;;;;7.57;4.93;;;;;;;;;;5096964;28;20024;-85
2022/03/26 06:20:11;;;;;;;9.00;5.30;;;;;;;;;;5078083;28;20028;-84
2022/03/26 06:22:37;;;;;;;6.38;5.10;;;;;;;;;;5096515;28;20050;-84
2022/03/26 06:25:03;;;;;;;9.52;5.00;;;;;;;;;;5078405;28;20037;-84
2022/03/26 06:27:29;;;;;;;7.32;4.70;;;;;;;;;;5098077;28;20024;-85
2022/03/26 06:29:54;;;;;;;8.25;5.38;;;;;;;;;;5079522;28;20024;-84
2022/03/26 06:32:20;;;;;;;12.63;5.82;;;;;;;;;;5094412;28;20032;-83
2022/03/26 06:34:46;;;;;;;9.48;6.25;;;;;;;;;;5043344;28;20043;-84
2022/03/26 06:37:12;;;;;;;11.40;6.32;;;;;;;;;;5078105;28;20086;-83
2022/03/26 06:39:37;;;;;;;10.52;6.10;;;;;;;;;;5062694;28;20031;-83
2022/03/26 06:42:04;;;;;;;9.50;6.82;;;;;;;;;;5096720;28;20516;-85
2022/03/26 06:44:29;;;;;;;11.93;7.00;;;;;;;;;;5079364;28;20040;-87
2022/03/26 06:46:54;;;;;;;11.70;7.57;;;;;;;;;;5043189;28;20169;-85
2022/03/26 06:49:20;;;;;;;12.13;7.63;;;;;;;;;;5097193;28;20058;-82
2022/03/26 06:51:46;;;;;;;13.45;7.32;;;;;;;;;;5095898;28;20035;-87
2022/03/26 06:54:12;;;;;;;11.65;7.55;;;;;;;;;;5077290;28;20032;-90
2022/03/26 06:56:37;;;;;;;14.63;7.80;;;;;;;;;;5096722;28;20031;-87
2022/03/26 06:59:02;;;;;;;17.88;9.15;;;;;;;;;;5078106;28;20040;-86
2022/03/26 07:01:28;;;;;;;20.08;9.02;;;;;;;;;;5097840;28;20124;-86
2022/03/26 07:03:54;;;;;;;15.18;8.60;;;;;;;;;;5098328;28;20028;-85
2022/03/26 07:06:19;;;;;;;19.10;9.80;;;;;;;;;;5096523;28;20034;-83
2022/03/26 07:08:46;;;;;;;13.60;7.80;;;;;;;;;;5078688;28;20035;-83
2022/03/26 07:11:11;;;;;;;11.70;7.57;;;;;;;;;;5062040;28;20028;-83
2022/03/26 07:13:37;;;;;;;14.00;8.32;;;;;;;;;;5061028;28;20039;-86
2022/03/26 07:16:02;;;;;;;12.60;8.68;;;;;;;;;;5079013;28;20382;-86
2022/03/26 07:18:27;;;;;;;14.40;7.43;;;;;;;;;;5097107;28;20051;-86
2022/03/26 07:20:58;;;;;;;13.52;7.60;;;;;;;;;;5045140;28;20046;-86
2022/03/26 07:23:24;;;;;;;25.48;8.25;;;;;;;;;;5078444;28;20028;-84
2022/03/26 07:25:49;;;;;;;13.73;8.05;;;;;;;;;;5077009;28;20039;-84
2022/03/26 07:28:15;;;;;;;12.75;7.45;;;;;;;;;;5077342;28;20403;-85
2022/03/26 07:30:40;;;;;;;13.38;7.55;;;;;;;;;;5078549;28;20124;-85
2022/03/26 07:33:06;;;;;;;13.48;7.55;;;;;;;;;;5044287;28;20032;-84
2022/03/26 07:35:31;;;;;;;13.25;7.35;;;;;;;;;;5077489;28;20024;-85
2022/03/26 07:37:57;;;;;;;15.95;7.22;;;;;;;;;;5095915;28;20038;-84
2022/03/26 07:40:23;;;;;;;14.63;8.40;;;;;;;;;;5076990;28;20111;-83
2022/03/26 07:42:48;;;;;;;12.23;8.13;;;;;;;;;;5096530;28;20413;-86
2022/03/26 07:45:14;;;;;;;16.42;8.55;;;;;;;;;;5100075;28;20455;-84
2022/03/26 07:47:39;;;;;;;18.63;8.77;;;;;;;;;;5067516;28;20024;-85
2022/03/26 07:50:06;;;;;;;16.23;7.97;;;;;;;;;;5082021;28;20028;-83
2022/03/26 07:52:32;;;;;;;16.58;8.60;;;;;;;;;;5081544;28;20054;-81
2022/03/26 07:54:58;;;;;;;18.40;8.02;;;;;;;;;;5063125;28;20032;-82
2022/03/26 07:57:23;;;;;;;21.83;8.13;;;;;;;;;;5078315;28;20024;-83
2022/03/26 07:59:49;;;;;;;14.55;7.78;;;;;;;;;;5077543;28;20189;-85
2022/03/26 08:02:14;;;;;;;13.77;7.10;;;;;;;;;;5076839;28;20059;-84
2022/03/26 08:04:40;;;;;;;18.77;8.73;;;;;;;;;;5078016;28;20028;-86
2022/03/26 08:07:06;;;;;;;12.60;6.57;;;;;;;;;;5096139;28;20032;-85
2022/03/26 08:09:32;;;;;;;19.50;8.02;;;;;;;;;;5095374;28;20032;-85
2022/03/26 08:11:57;;;;;;;15.30;8.00;;;;;;;;;;5077034;28;20107;-87
2022/03/26 08:14:23;;;;;;;11.90;7.20;;;;;;;;;;5077119;28;20028;-86
2022/03/26 08:16:49;;;;;;;17.00;7.57;;;;;;;;;;5077878;28;20032;-87
2022/03/26 08:19:14;;;;;;;13.07;6.93;;;;;;;;;;5096572;28;20486;-87
2022/03/26 08:21:40;;;;;;;12.30;7.22;;;;;;;;;;5099176;28;20028;-87
2022/03/26 08:24:05;;;;;;;16.75;7.47;;;;;;;;;;5098604;28;20088;-86
2022/03/26 08:26:31;;;;;;;13.43;7.60;;;;;;;;;;5099885;28;20035;-85
2022/03/26 08:28:58;;;;;;;12.43;7.72;;;;;;;;;;5082634;28;20028;-86
2022/03/26 08:31:26;;;;;;;9.30;7.03;;;;;;;;;;5080068;28;20035;-89
2022/03/26 08:33:52;;;;;;;21.50;7.70;;;;;;;;;;5063647;28;20467;-89
2022/03/26 08:36:18;;;;;;;12.88;7.50;;;;;;;;;;5096646;28;20020;-85
2022/03/26 08:38:45;;;;;;;16.63;7.68;;;;;;;;;;5079176;28;20026;-85
2022/03/26 08:41:14;;;;;;;23.35;8.23;;;;;;;;;;5049837;28;20032;-83
2022/03/26 08:43:40;;;;;;;13.65;8.73;;;;;;;;;;5079196;28;20055;-86
2022/03/26 08:46:05;;;;;;;15.10;8.48;;;;;;;;;;5061955;28;20056;-85
2022/03/26 08:48:31;;;;;;;14.40;8.48;;;;;;;;;;5061874;28;20379;-84
2022/03/26 08:50:57;;;;;;;16.58;8.02;;;;;;;;;;5078324;28;20032;-86
2022/03/26 08:53:23;;;;;;;18.83;8.50;;;;;;;;;;5081886;28;20115;-86
2022/03/26 08:55:49;;;;;;;21.35;7.97;;;;;;;;;;5098957;28;20028;-87
2022/03/26 08:58:17;;;;;;;14.52;8.23;;;;;;;;;;5079119;28;20040;-85
2022/03/26 09:00:42;;;;;;;21.05;8.45;;;;;;;;;;5076887;28;20044;-84
2022/03/26 09:03:08;;;;;;;14.88;8.10;;;;;;;;;;5078000;28;20396;-86
2022/03/26 09:05:36;;;;;;;14.20;8.10;;;;;;;;;;5075339;28;20387;-83
2022/03/26 09:08:02;;;;;;;11.93;8.07;;;;;;;;;;5080419;28;20379;-84
2022/03/26 09:10:27;;;;;;;12.70;7.60;;;;;;;;;;5074653;28;20040;-85
2022/03/26 09:12:52;;;;;;;12.20;7.50;;;;;;;;;;5074478;28;20029;-85
2022/03/26 09:15:18;;;;;;;14.30;7.70;;;;;;;;;;5076064;28;20460;-86
2022/03/26 09:17:43;;;;;;;11.65;7.38;;;;;;;;;;5075979;28;20024;-86
2022/03/26 09:20:09;;;;;;;14.30;7.80;;;;;;;;;;5076842;28;20036;-85
2022/03/26 09:22:35;;;;;;;11.48;7.78;;;;;;;;;;5077889;28;20029;-83
2022/03/26 09:25:02;;;;;;;12.23;7.25;;;;;;;;;;5079461;28;20486;-86
2022/03/26 09:27:28;;;;;;;16.33;8.27;;;;;;;;;;5085148;28;20107;-83
2022/03/26 09:29:53;;;;;;;12.75;8.00;;;;;;;;;;5086581;28;20380;-85
2022/03/26 09:32:19;;;;;;;13.18;7.30;;;;;;;;;;5065607;28;20024;-85
2022/03/26 09:34:44;;;;;;;12.63;7.35;;;;;;;;;;5080626;28;20036;-85
2022/03/26 09:37:11;;;;;;;15.10;8.80;;;;;;;;;;5079337;28;20020;-86
2022/03/26 09:39:37;;;;;;;15.93;8.15;;;;;;;;;;5078209;28;20096;-84
2022/03/26 09:42:03;;;;;;;10.20;7.20;;;;;;;;;;5061128;28;20089;-84
2022/03/26 09:44:31;;;;;;;13.32;7.57;;;;;;;;;;5057266;28;20020;-84
2022/03/26 09:46:57;;;;;;;15.88;8.18;;;;;;;;;;5057656;28;20033;-85
2022/03/26 09:49:22;;;;;;;13.32;7.63;;;;;;;;;;5040944;28;20043;-84
2022/03/26 09:51:53;;;;;;;15.13;7.25;;;;;;;;;;5075114;28;20029;-85
2022/03/26 09:54:19;;;;;;;13.20;7.88;;;;;;;;;;5074608;28;20115;-85
2022/03/26 09:56:44;;;;;;;12.23;7.90;;;;;;;;;;5073782;28;20075;-85
2022/03/26 09:59:10;;;;;;;13.73;8.57;;;;;;;;;;5057763;28;20028;-86
2022/03/26 10:01:35;;;;;;;11.75;8.00;;;;;;;;;;5073216;28;20549;-85
2022/03/26 10:04:11;;;;;;;15.02;8.40;;;;;;;;;;5056714;28;20536;-86
2022/03/26 10:06:37;;;;;;;15.75;7.68;;;;;;;;;;5056428;28;20032;-86
2022/03/26 10:09:03;;;;;;;14.02;8.18;;;;;;;;;;5074354;28;20077;-85
2022/03/26 10:11:32;;;;;;;14.27;8.30;;;;;;;;;;5073664;28;20036;-85
2022/03/26 10:13:58;;;;;;;13.93;7.40;;;;;;;;;;5075204;28;20536;-85
2022/03/26 10:16:24;;;;;;;12.18;7.82;;;;;;;;;;5050946;28;20021;-84
2022/03/26 10:18:50;;;;;;;16.50;8.27;;;;;;;;;;5064396;28;20487;-85
2022/03/26 10:21:21;;;;;;;11.38;7.47;;;;;;;;;;5056486;28;20070;-84
2022/03/26 10:23:52;;;;;;;15.18;8.32;;;;;;;;;;5055025;28;20033;-85
2022/03/26 10:26:18;;;;;;;14.85;7.88;;;;;;;;;;5071740;28;20107;-84
2022/03/26 10:28:53;;;;;;;11.07;6.75;;;;;;;;;;5072228;28;20031;-84
2022/03/26 10:34:09;;;;;;;18.05;9.55;;;;;;;;;;5072726;28;20031;-84
2022/03/26 10:36:39;;;;;;;14.98;8.50;;;;;;;;;;5073620;28;20087;-85
2022/03/26 10:39:07;;;;;;;15.15;8.60;;;;;;;;;;5055455;28;20029;-87
2022/03/26 10:41:34;;;;;;;17.27;9.55;;;;;;;;;;5072223;28;20087;-84
2022/03/26 10:44:14;;;;;;;18.35;9.98;;;;;;;;;;5071972;28;20051;-84
2022/03/26 10:46:50;;;;;;;21.38;9.88;;;;;;;;;;5092450;28;20102;-86
2022/03/26 10:49:28;;;;;;;19.15;9.95;;;;;;;;;;5093650;28;20051;-86
2022/03/26 10:51:55;;;;;;;17.85;10.02;;;;;;;;;;5093025;28;20031;-87
2022/03/26 10:54:28;;;;;;;18.88;9.10;;;;;;;;;;5092843;28;20026;-85
2022/03/26 10:56:53;;;;;;;18.52;10.23;;;;;;;;;;5094370;28;20024;-85
2022/03/26 10:59:19;;;;;;;15.13;9.20;;;;;;;;;;5076579;28;20123;-84
2022/03/26 11:01:44;;;;;;;14.27;8.85;;;;;;;;;;5112603;28;20075;-85
2022/03/26 11:04:10;;;;;;;12.93;7.47;;;;;;;;;;5114318;28;20024;-86
2022/03/26 11:06:38;;;;;;;16.23;8.52;;;;;;;;;;5078571;28;20105;-84
2022/03/26 11:09:04;;;;;;;12.00;7.10;;;;;;;;;;5078740;28;20035;-84
2022/03/26 11:11:30;;;;;;;13.75;7.10;;;;;;;;;;5062405;28;20068;-84
2022/03/26 11:14:15;;;;;;;10.13;7.28;;;;;;;;;;5113671;28;20479;-83
2022/03/26 11:16:41;;;;;;;15.25;7.45;;;;;;;;;;5113103;28;20038;-83
2022/03/26 11:19:25;;;;;;;16.20;9.38;;;;;;;;;;5114434;28;20027;-85
2022/03/26 11:21:56;;;;;;;16.52;8.85;;;;;;;;;;5115410;28;20027;-86
2022/03/26 11:24:35;;;;;;;13.25;8.10;;;;;;;;;;5079779;28;20027;-86
2022/03/26 11:27:45;;;;;;;15.57;9.70;;;;;;;;;;5115828;28;20359;-86
2022/03/26 11:30:19;;;;;;;15.32;8.65;;;;;;;;;;5093836;28;20442;-85
2022/03/26 11:32:46;;;;;;;14.02;8.88;;;;;;;;;;5096543;28;20030;-85
2022/03/26 11:35:16;;;;;;;15.90;8.80;;;;;;;;;;5097187;28;20470;-84
2022/03/26 11:38:02;;;;;;;16.58;9.07;;;;;;;;;;5095759;28;20085;-84
2022/03/26 11:40:43;;;;;;;16.13;8.95;;;;;;;;;;5096812;28;20027;-84
2022/03/26 11:43:17;;;;;;;14.88;7.75;;;;;;;;;;5079902;28;20470;-88
2022/03/26 11:51:26;;;;;;;14.25;7.45;;;;;;;;;;5100556;28;20038;-91
2022/03/26 11:54:04;;;;;;;15.70;8.00;;;;;;;;;;5114662;28;20031;-81
2022/03/26 11:56:31;;;;;;;13.43;7.57;;;;;;;;;;5118010;28;20019;-82
2022/03/26 11:59:05;;;;;;;17.20;8.60;;;;;;;;;;5119006;28;20028;-80
2022/03/26 12:01:50;;;;;;;12.35;7.47;;;;;;;;;;5099222;28;20048;-79
2022/03/26 12:04:17;;;;;;;11.82;7.18;;;;;;;;;;5100202;28;20072;-79
2022/03/26 12:06:50;;;;;;;15.38;7.50;;;;;;;;;;5066536;28;20036;-79
2022/03/26 12:09:34;;;;;;;16.95;7.68;;;;;;;;;;5083508;28;20116;-79
2022/03/26 12:12:07;;;;;;;17.10;7.25;;;;;;;;;;5082756;28;20510;-80
2022/03/26 12:14:33;;;;;;;12.18;7.05;;;;;;;;;;5100021;28;20024;-79
2022/03/26 12:16:58;;;;;;;13.75;8.18;;;;;;;;;;5100126;28;20432;-82
2022/03/26 12:19:41;;;;;;;16.27;8.20;;;;;;;;;;5099835;28;20051;-82
2022/03/26 12:22:26;;;;;;;12.32;7.53;;;;;;;;;;5118085;28;20034;-83
2022/03/26 12:24:53;;;;;;;14.05;8.35;;;;;;;;;;5099855;28;20519;-84
2022/03/26 12:27:19;;;;;;;13.38;7.63;;;;;;;;;;5085962;28;20119;-83
2022/03/26 12:29:45;;;;;;;13.75;6.82;;;;;;;;;;5119550;28;20023;-86
2022/03/26 12:32:11;;;;;;;15.57;7.30;;;;;;;;;;5100372;28;20039;-87
2022/03/26 12:34:55;;;;;;;14.32;7.93;;;;;;;;;;5069257;28;20467;-85
2022/03/26 12:37:23;;;;;;;16.23;7.70;;;;;;;;;;5096450;28;20017;-84
2022/03/26 12:39:50;;;;;;;14.50;7.53;;;;;;;;;;5079755;28;20093;-84
2022/03/26 12:42:16;;;;;;;15.10;8.20;;;;;;;;;;5079872;28;20069;-85
2022/03/26 12:44:41;;;;;;;15.13;7.97;;;;;;;;;;5081316;28;20421;-83
2022/03/26 12:47:06;;;;;;;13.90;7.68;;;;;;;;;;5060836;28;20356;-83
2022/03/26 12:49:38;;;;;;;13.07;6.75;;;;;;;;;;5061340;28;20028;-84
2022/03/26 12:52:06;;;;;;;18.92;8.52;;;;;;;;;;5045378;28;20024;-82
2022/03/26 12:54:32;;;;;;;13.38;7.53;;;;;;;;;;5061916;28;20535;-83
2022/03/26 12:57:07;;;;;;;12.85;7.47;;;;;;;;;;5081958;28;20024;-84
2022/03/26 12:59:32;;;;;;;15.35;7.35;;;;;;;;;;5063352;28;20110;-84
2022/03/26 13:02:01;;;;;;;12.45;6.57;;;;;;;;;;5044280;28;20075;-83
2022/03/26 13:04:27;;;;;;;14.68;7.70;;;;;;;;;;5061315;28;20061;-82
2022/03/26 13:06:57;;;;;;;13.73;7.85;;;;;;;;;;5077427;28;20403;-83
2022/03/26 13:09:30;;;;;;;13.13;7.00;;;;;;;;;;5061470;28;20028;-83
2022/03/26 13:11:56;;;;;;;13.35;8.15;;;;;;;;;;5046462;28;20040;-84
2022/03/26 13:14:22;;;;;;;16.63;8.10;;;;;;;;;;5078874;28;20032;-82
2022/03/26 13:16:52;;;;;;;14.93;8.15;;;;;;;;;;5061691;28;20024;-83
2022/03/26 13:19:17;;;;;;;16.52;7.38;;;;;;;;;;5095363;28;20024;-82
2022/03/26 13:21:46;;;;;;;12.90;7.28;;;;;;;;;;5079492;28;20099;-83
2022/03/26 13:24:14;;;;;;;14.50;8.10;;;;;;;;;;5095165;28;20032;-82
2022/03/26 13:26:41;;;;;;;12.35;6.45;;;;;;;;;;5043990;28;20407;-82
2022/03/26 13:29:26;;;;;;;15.25;7.20;;;;;;;;;;5094603;28;20060;-83
2022/03/26 13:31:58;;;;;;;13.68;7.35;;;;;;;;;;5094774;28;20085;-84
2022/03/26 13:34:44;;;;;;;16.05;7.20;;;;;;;;;;5094560;28;20056;-81
2022/03/26 13:37:11;;;;;;;14.50;6.40;;;;;;;;;;5059983;28;20028;-85
2022/03/26 13:39:42;;;;;;;10.60;6.60;;;;;;;;;;5060034;28;20032;-84
2022/03/26 13:42:17;;;;;;;15.35;7.07;;;;;;;;;;5076318;28;20478;-84
2022/03/26 13:44:44;;;;;;;13.05;7.07;;;;;;;;;;5060095;28;20020;-83
2022/03/26 13:47:17;;;;;;;15.18;7.18;;;;;;;;;;5042980;28;20052;-83
2022/03/26 13:49:43;;;;;;;14.52;6.70;;;;;;;;;;5077304;28;20103;-84
2022/03/26 13:52:29;;;;;;;15.82;7.57;;;;;;;;;;5062318;28;20034;-82
2022/03/26 13:54:55;;;;;;;10.10;5.68;;;;;;;;;;5076495;28;20027;-86
2022/03/26 13:57:35;;;;;;;10.75;6.90;;;;;;;;;;5094270;28;20017;-85
2022/03/26 14:00:08;;;;;;;11.30;6.63;;;;;;;;;;5040006;28;1102936;-84
2022/03/26 14:02:38;;;;;;;15.77;7.10;;;;;;;;;;5076431;28;20092;-85
2022/03/26 14:05:04;;;;;;;17.73;8.82;;;;;;;;;;5059537;28;20074;-85
2022/03/26 14:07:30;;;;;;;13.85;7.95;;;;;;;;;;5076429;28;20028;-84
2022/03/26 14:09:55;;;;;;;20.88;8.10;;;;;;;;;;5096064;28;20097;-84
2022/03/26 14:12:21;;;;;;;16.73;9.13;;;;;;;;;;5094798;28;20036;-83
2022/03/26 14:14:47;;;;;;;16.63;9.15;;;;;;;;;;5076933;28;20032;-82
2022/03/26 14:17:12;;;;;;;12.82;8.10;;;;;;;;;;5076682;28;20035;-83
2022/03/26 14:19:38;;;;;;;17.45;9.15;;;;;;;;;;5076547;28;20024;-83
2022/03/26 14:22:03;;;;;;;14.88;8.43;;;;;;;;;;5044145;28;20082;-84
2022/03/26 14:24:29;;;;;;;20.85;9.90;;;;;;;;;;5096278;28;20027;-84
2022/03/26 14:26:56;;;;;;;17.75;9.50;;;;;;;;;;5094983;28;20058;-84
2022/03/26 14:29:22;;;;;;;17.27;9.57;;;;;;;;;;5077652;28;20030;-83
2022/03/26 14:31:48;;;;;;;17.27;9.63;;;;;;;;;;5095538;28;20043;-85
2022/03/26 14:34:14;;;;;;;18.30;9.98;;;;;;;;;;5060378;28;20028;-83
2022/03/26 14:36:39;;;;;;;21.90;10.95;;;;;;;;;;5095710;28;20051;-82
2022/03/26 14:39:04;;;;;;;20.45;11.55;;;;;;;;;;5076733;28;20111;-83
2022/03/26 14:41:30;;;;;;;21.73;10.63;;;;;;;;;;5094597;28;20062;-81
2022/03/26 14:43:55;;;;;;;20.70;10.30;;;;;;;;;;5077352;28;20028;-83